Time;durP1;ratioP1;P1;durP2;ratioP2;P2;SDS_P1;SDS_P2;PMS_P1;PMS_P2;Temp;Humidity;BMP_temperature;BMP_pressure;BME280_temperature;BME280_humidity;BME280_pressure;Samples;Min_cycle;Max_cycle;Signal;HPM_P1;HPM_P2
2023/04/10 00:00:01;;;;;;;32.55;11.75;;;1.70;98.90;;;;;;5040242;28;20053;-74
2023/04/10 00:02:28;;;;;;;31.35;11.73;;;1.70;98.90;;;;;;5062644;28;20219;-74
2023/04/10 00:04:55;;;;;;;32.95;12.18;;;1.60;98.90;;;;;;5064094;28;20045;-74
2023/04/10 00:07:22;;;;;;;35.08;12.55;;;1.60;98.80;;;;;;5067311;28;20106;-74
2023/04/10 00:09:49;;;;;;;33.20;11.45;;;1.50;98.90;;;;;;5066455;28;20043;-74
2023/04/10 00:12:16;;;;;;;34.40;12.93;;;1.50;99.20;;;;;;5044664;28;20064;-74
2023/04/10 00:14:42;;;;;;;26.67;11.80;;;1.50;99.00;;;;;;5044668;28;20056;-74
2023/04/10 00:17:09;;;;;;;33.72;12.30;;;1.40;98.90;;;;;;5063711;28;20202;-73
2023/04/10 00:19:36;;;;;;;30.45;11.60;;;1.40;99.10;;;;;;5064255;28;20041;-74
2023/04/10 00:22:04;;;;;;;25.05;12.00;;;1.40;99.10;;;;;;5063655;28;20048;-74
2023/04/10 00:24:31;;;;;;;27.50;12.32;;;1.30;99.30;;;;;;5046329;28;20048;-74
2023/04/10 00:26:58;;;;;;;27.92;12.10;;;1.30;99.50;;;;;;5044762;28;20045;-74
2023/04/10 00:29:24;;;;;;;28.20;11.75;;;1.30;99.30;;;;;;5042038;28;20052;-73
2023/04/10 00:31:51;;;;;;;29.15;11.65;;;1.20;99.20;;;;;;5063919;28;20052;-74
2023/04/10 00:34:18;;;;;;;28.08;11.85;;;1.20;99.20;;;;;;5065452;28;20835;-73
2023/04/10 00:36:48;;;;;;;25.83;12.00;;;1.20;99.10;;;;;;5045772;28;20048;-74
2023/04/10 00:39:15;;;;;;;39.53;13.25;;;1.10;99.30;;;;;;5065630;28;20495;-74
2023/04/10 00:41:42;;;;;;;36.15;13.75;;;1.10;99.40;;;;;;5042912;28;20049;-74
2023/04/10 00:44:09;;;;;;;27.60;13.13;;;1.10;99.60;;;;;;5059851;28;20036;-74
2023/04/10 00:46:38;;;;;;;34.38;12.80;;;1.10;99.90;;;;;;5063805;28;20408;-74
2023/04/10 00:49:05;;;;;;;29.38;12.48;;;1.00;99.80;;;;;;5062448;28;20066;-74
2023/04/10 00:51:32;;;;;;;32.97;12.77;;;1.00;99.90;;;;;;5052097;28;20087;-78
2023/04/10 00:54:01;;;;;;;30.83;12.80;;;1.00;99.90;;;;;;5051538;28;20041;-78
2023/04/10 00:56:31;;;;;;;33.03;13.20;;;1.00;99.80;;;;;;5048406;28;20052;-78
2023/04/10 00:58:57;;;;;;;30.92;12.98;;;1.00;99.80;;;;;;5065481;28;20048;-78
2023/04/10 01:01:24;;;;;;;30.35;13.25;;;1.00;100.00;;;;;;5063853;28;20052;-78
2023/04/10 01:03:52;;;;;;;28.30;12.43;;;1.00;100.00;;;;;;5063357;28;20136;-78
2023/04/10 01:06:45;;;;;;;28.73;12.55;;;0.90;100.00;;;;;;5060786;28;20041;-78
2023/04/10 01:09:30;;;;;;;36.47;13.00;;;0.90;100.00;;;;;;5043225;28;20045;-77
2023/04/10 01:12:02;;;;;;;25.15;11.80;;;0.90;100.00;;;;;;5062157;28;20051;-79
2023/04/10 01:14:50;;;;;;;34.78;12.85;;;0.90;100.00;;;;;;5065319;28;20274;-78
2023/04/10 01:17:27;;;;;;;26.98;11.82;;;0.90;100.00;;;;;;5062522;28;20053;-79
2023/04/10 01:20:08;;;;;;;35.78;13.15;;;0.90;100.00;;;;;;5047723;28;20052;-78
2023/04/10 01:22:58;;;;;;;31.20;12.00;;;0.80;100.00;;;;;;5069221;28;20044;-78
2023/04/10 01:25:40;;;;;;;32.15;12.77;;;0.80;100.00;;;;;;5062209;28;20052;-78
2023/04/10 01:28:25;;;;;;;29.83;12.98;;;0.80;100.00;;;;;;5067734;28;20579;-78
2023/04/10 01:30:58;;;;;;;30.48;11.68;;;0.70;100.00;;;;;;5046910;28;20065;-74
2023/04/10 01:33:37;;;;;;;26.77;12.32;;;0.70;100.00;;;;;;5063063;28;20653;-73
2023/04/10 01:36:06;;;;;;;27.80;12.63;;;0.70;100.00;;;;;;5062834;28;20056;-73
2023/04/10 01:38:35;;;;;;;27.35;12.93;;;0.80;100.00;;;;;;5049231;28;20079;-74
2023/04/10 01:41:03;;;;;;;30.52;11.45;;;0.80;100.00;;;;;;5044964;28;20149;-73
2023/04/10 01:43:31;;;;;;;32.13;12.15;;;0.80;100.00;;;;;;5043875;28;20056;-73
2023/04/10 01:46:00;;;;;;;28.90;12.57;;;0.80;100.00;;;;;;5061258;28;20048;-74
2023/04/10 01:48:28;;;;;;;28.13;12.68;;;0.80;100.00;;;;;;5061606;28;20056;-73
2023/04/10 01:50:55;;;;;;;33.53;13.10;;;0.80;100.00;;;;;;5063614;28;20480;-74
2023/04/10 01:53:23;;;;;;;34.67;12.32;;;0.80;100.00;;;;;;5061299;28;20044;-73
2023/04/10 01:55:52;;;;;;;28.83;13.13;;;0.80;100.00;;;;;;5045294;28;20408;-74
2023/04/10 01:58:19;;;;;;;32.75;12.35;;;0.70;100.00;;;;;;5061452;28;20076;-74
2023/04/10 02:00:46;;;;;;;35.35;12.00;;;0.70;100.00;;;;;;5040229;28;20045;-74
2023/04/10 02:03:13;;;;;;;30.23;13.35;;;0.60;100.00;;;;;;5041407;28;20707;-73
2023/04/10 02:05:43;;;;;;;28.77;12.02;;;0.60;100.00;;;;;;5063511;28;20067;-73
2023/04/10 02:08:16;;;;;;;37.33;13.68;;;0.60;100.00;;;;;;5062672;28;20052;-73
2023/04/10 02:11:01;;;;;;;32.15;13.35;;;0.60;100.00;;;;;;5058070;28;20935;-74
2023/04/10 02:13:29;;;;;;;35.72;14.13;;;0.60;100.00;;;;;;5064153;28;20755;-73
2023/04/10 02:15:59;;;;;;;43.78;14.05;;;0.60;100.00;;;;;;5042486;28;20061;-74
2023/04/10 02:18:31;;;;;;;24.92;12.35;;;0.60;100.00;;;;;;5049853;28;20051;-73
2023/04/10 02:20:58;;;;;;;28.83;12.13;;;0.50;100.00;;;;;;5062038;28;20051;-74
2023/04/10 02:23:25;;;;;;;30.75;11.98;;;0.60;100.00;;;;;;5061066;28;20057;-73
2023/04/10 02:25:52;;;;;;;28.13;11.75;;;0.50;100.00;;;;;;5058784;28;20045;-74
2023/04/10 02:28:19;;;;;;;30.42;12.65;;;0.50;100.00;;;;;;5059338;28;20048;-73
2023/04/10 02:30:46;;;;;;;22.48;10.90;;;0.50;100.00;;;;;;5038760;28;20519;-73
2023/04/10 02:33:13;;;;;;;28.85;11.52;;;0.40;100.00;;;;;;5063449;28;20079;-73
2023/04/10 02:35:39;;;;;;;27.15;12.45;;;0.30;100.00;;;;;;5062645;28;20044;-78
2023/04/10 02:38:06;;;;;;;26.83;12.73;;;0.30;100.00;;;;;;5063132;28;20052;-78
2023/04/10 02:40:34;;;;;;;31.40;11.68;;;0.30;100.00;;;;;;5059222;28;20048;-78
2023/04/10 02:43:01;;;;;;;25.52;11.77;;;0.30;100.00;;;;;;5041352;28;20436;-78
2023/04/10 02:45:27;;;;;;;27.75;12.02;;;0.30;100.00;;;;;;5062145;28;20059;-73
2023/04/10 02:47:54;;;;;;;25.73;11.30;;;0.30;100.00;;;;;;5060353;28;20096;-73
2023/04/10 02:50:22;;;;;;;23.63;10.75;;;0.30;100.00;;;;;;5044037;28;20048;-73
2023/04/10 02:52:48;;;;;;;31.10;12.25;;;0.30;100.00;;;;;;5060170;28;20048;-73
2023/04/10 02:55:15;;;;;;;30.60;11.80;;;0.20;100.00;;;;;;5061095;28;20087;-74
2023/04/10 02:57:42;;;;;;;30.67;11.02;;;0.10;100.00;;;;;;5058399;28;20127;-74
2023/04/10 03:00:09;;;;;;;25.42;11.93;;;0.10;100.00;;;;;;5055537;28;20120;-74
2023/04/10 03:02:36;;;;;;;32.83;11.43;;;0.10;100.00;;;;;;5037694;28;20127;-74
2023/04/10 03:05:04;;;;;;;28.27;11.82;;;0.00;100.00;;;;;;5064032;28;20047;-74
2023/04/10 03:07:32;;;;;;;30.38;12.32;;;0.00;100.00;;;;;;5040978;28;20048;-73
2023/04/10 03:09:59;;;;;;;31.27;12.35;;;0.00;100.00;;;;;;5058757;28;20052;-74
2023/04/10 03:12:26;;;;;;;29.08;12.00;;;0.00;100.00;;;;;;5040761;28;20143;-74
2023/04/10 03:14:53;;;;;;;29.55;11.95;;;-0.10;100.00;;;;;;5063211;28;20040;-74
2023/04/10 03:17:19;;;;;;;24.95;11.43;;;-0.20;100.00;;;;;;5060726;28;20055;-74
2023/04/10 03:19:46;;;;;;;26.15;11.32;;;-0.20;100.00;;;;;;5059749;28;20714;-74
2023/04/10 03:22:13;;;;;;;29.52;12.30;;;-0.20;100.00;;;;;;5043204;28;20051;-74
2023/04/10 03:24:40;;;;;;;29.67;11.18;;;-0.30;100.00;;;;;;5061570;28;20048;-74
2023/04/10 03:27:07;;;;;;;27.65;12.15;;;-0.30;100.00;;;;;;5061283;28;20041;-74
2023/04/10 03:29:33;;;;;;;26.38;12.38;;;-0.30;100.00;;;;;;5042769;28;20606;-74
2023/04/10 03:32:00;;;;;;;32.08;12.80;;;-0.30;100.00;;;;;;5044477;28;20879;-74
2023/04/10 03:34:27;;;;;;;31.48;12.10;;;-0.20;100.00;;;;;;5063173;28;20098;-74
2023/04/10 03:36:54;;;;;;;35.58;13.80;;;-0.20;100.00;;;;;;5048820;28;20052;-74
2023/04/10 03:39:21;;;;;;;27.40;12.48;;;-0.20;100.00;;;;;;5048304;28;20062;-74
2023/04/10 03:41:47;;;;;;;24.70;11.85;;;-0.20;100.00;;;;;;5045344;28;20771;-74
2023/04/10 03:44:14;;;;;;;29.50;12.57;;;-0.20;100.00;;;;;;5049640;28;20755;-74
2023/04/10 03:46:41;;;;;;;25.05;11.70;;;-0.20;100.00;;;;;;5068401;28;20045;-74
2023/04/10 03:49:08;;;;;;;27.75;12.65;;;-0.20;100.00;;;;;;5065783;28;20048;-74
2023/04/10 03:51:35;;;;;;;28.67;12.38;;;-0.20;100.00;;;;;;5062815;28;20053;-74
2023/04/10 03:54:02;;;;;;;31.92;12.57;;;-0.20;100.00;;;;;;5048573;28;20052;-74
2023/04/10 03:56:29;;;;;;;23.88;11.80;;;-0.20;100.00;;;;;;5045510;28;20044;-74
2023/04/10 03:58:56;;;;;;;32.25;14.00;;;-0.20;100.00;;;;;;5044570;28;20053;-74
2023/04/10 04:01:22;;;;;;;28.15;12.77;;;-0.30;100.00;;;;;;5061937;28;20107;-74
2023/04/10 04:03:49;;;;;;;27.83;12.63;;;-0.30;100.00;;;;;;5064684;28;20055;-74
2023/04/10 04:06:16;;;;;;;27.67;13.70;;;-0.40;100.00;;;;;;5062396;28;20480;-74
2023/04/10 04:08:43;;;;;;;27.95;11.95;;;-0.40;100.00;;;;;;5063176;28;20045;-74
2023/04/10 04:11:10;;;;;;;29.52;13.13;;;-0.40;100.00;;;;;;5064988;28;20048;-74
2023/04/10 04:13:37;;;;;;;31.50;12.63;;;-0.40;100.00;;;;;;5063993;28;20399;-74
2023/04/10 04:16:04;;;;;;;34.97;12.18;;;-0.50;100.00;;;;;;5047182;28;20063;-74
2023/04/10 04:18:31;;;;;;;26.45;11.80;;;-0.40;100.00;;;;;;5063822;28;20055;-74
2023/04/10 04:20:58;;;;;;;29.75;11.65;;;-0.50;100.00;;;;;;5061337;28;20040;-74
2023/04/10 04:23:24;;;;;;;28.55;12.73;;;-0.50;100.00;;;;;;5064525;28;20080;-74
2023/04/10 04:25:53;;;;;;;32.58;14.32;;;-0.50;100.00;;;;;;5047936;28;20481;-74
2023/04/10 04:28:20;;;;;;;34.45;13.50;;;-0.50;100.00;;;;;;5065884;28;20059;-75
2023/04/10 04:30:46;;;;;;;34.47;12.43;;;-0.50;100.00;;;;;;5062770;28;20049;-74
2023/04/10 04:33:13;;;;;;;30.30;13.95;;;-0.60;100.00;;;;;;5063543;28;20048;-74
2023/04/10 04:35:40;;;;;;;44.58;14.50;;;-0.50;100.00;;;;;;5065297;28;20056;-74
2023/04/10 04:38:07;;;;;;;41.22;14.40;;;-0.50;100.00;;;;;;5069075;28;20139;-74
2023/04/10 04:40:34;;;;;;;35.50;13.93;;;-0.50;100.00;;;;;;5067850;28;20055;-74
2023/04/10 04:43:01;;;;;;;33.97;14.15;;;-0.50;100.00;;;;;;5043862;28;20066;-74
2023/04/10 04:45:29;;;;;;;32.20;14.93;;;-0.40;100.00;;;;;;5063262;28;20049;-74
2023/04/10 04:47:56;;;;;;;40.42;14.30;;;-0.40;100.00;;;;;;5058266;28;20057;-74
2023/04/10 04:50:23;;;;;;;38.75;16.00;;;-0.30;100.00;;;;;;5047033;28;20055;-74
2023/04/10 04:52:50;;;;;;;37.70;14.48;;;-0.30;100.00;;;;;;5062743;28;20060;-74
2023/04/10 04:55:17;;;;;;;38.60;15.30;;;-0.20;100.00;;;;;;5064680;28;20063;-75
2023/04/10 04:57:43;;;;;;;36.38;15.00;;;-0.10;100.00;;;;;;5042830;28;20045;-74
2023/04/10 05:00:11;;;;;;;32.08;15.88;;;-0.10;100.00;;;;;;5044219;28;20480;-74
2023/04/10 05:02:37;;;;;;;41.55;16.75;;;0.00;100.00;;;;;;5051061;28;20830;-74
2023/04/10 05:05:05;;;;;;;45.00;15.32;;;0.00;100.00;;;;;;5045554;28;20049;-74
2023/04/10 05:07:32;;;;;;;34.75;14.38;;;0.00;100.00;;;;;;5063770;28;20690;-74
2023/04/10 05:09:58;;;;;;;41.40;16.08;;;0.00;100.00;;;;;;5058228;28;20048;-74
2023/04/10 05:12:25;;;;;;;37.95;14.75;;;0.10;100.00;;;;;;5041670;28;20052;-74
2023/04/10 05:14:52;;;;;;;38.42;15.50;;;0.20;100.00;;;;;;5044923;28;20049;-74
2023/04/10 05:17:19;;;;;;;45.40;15.38;;;0.30;100.00;;;;;;5062753;28;20082;-75
2023/04/10 05:19:46;;;;;;;40.20;14.80;;;0.40;100.00;;;;;;5061643;28;20044;-74
2023/04/10 05:22:12;;;;;;;47.30;16.95;;;0.50;100.00;;;;;;5063001;28;20048;-74
2023/04/10 05:24:39;;;;;;;42.97;17.88;;;0.50;100.00;;;;;;5045888;28;20045;-74
2023/04/10 05:27:06;;;;;;;41.45;15.30;;;0.60;100.00;;;;;;5045999;28;20056;-74
2023/04/10 05:29:33;;;;;;;32.63;15.98;;;0.70;100.00;;;;;;5063215;28;20678;-74
2023/04/10 05:32:00;;;;;;;42.28;15.13;;;0.70;100.00;;;;;;5045459;28;20052;-74
2023/04/10 05:34:27;;;;;;;41.83;16.80;;;0.80;100.00;;;;;;5042852;28;20045;-75
2023/04/10 05:36:53;;;;;;;39.13;15.68;;;0.90;100.00;;;;;;5063444;28;20628;-75
2023/04/10 05:39:24;;;;;;;34.50;15.52;;;0.90;100.00;;;;;;5062592;28;20824;-74
2023/04/10 05:41:51;;;;;;;42.92;16.60;;;1.00;100.00;;;;;;5045359;28;20055;-74
2023/04/10 05:44:18;;;;;;;43.22;15.85;;;1.10;100.00;;;;;;5044749;28;20055;-75
2023/04/10 05:46:44;;;;;;;43.00;15.98;;;1.20;100.00;;;;;;5063791;28;20052;-75
2023/04/10 05:49:11;;;;;;;31.95;15.30;;;1.20;100.00;;;;;;5064792;28;20138;-75
2023/04/10 05:51:38;;;;;;;45.33;16.10;;;1.30;100.00;;;;;;5064505;28;20059;-75
2023/04/10 05:54:05;;;;;;;43.45;17.27;;;1.40;100.00;;;;;;5045218;28;20048;-74
2023/04/10 05:56:32;;;;;;;40.42;17.60;;;1.50;100.00;;;;;;5044179;28;20059;-74
2023/04/10 05:58:58;;;;;;;37.97;16.42;;;1.60;100.00;;;;;;5063428;28;20041;-74
2023/04/10 06:01:25;;;;;;;38.78;17.48;;;1.70;100.00;;;;;;5060211;28;20052;-75
2023/04/10 06:03:52;;;;;;;39.97;16.48;;;1.70;100.00;;;;;;5064103;28;20049;-75
2023/04/10 06:06:20;;;;;;;38.97;17.35;;;1.80;100.00;;;;;;5044750;28;20506;-75
2023/04/10 06:08:47;;;;;;;39.83;16.95;;;1.80;100.00;;;;;;5056186;28;20056;-75
2023/04/10 06:11:14;;;;;;;33.70;15.57;;;1.90;100.00;;;;;;5041575;28;20049;-75
2023/04/10 06:13:41;;;;;;;37.25;15.88;;;1.90;100.00;;;;;;5061670;28;20044;-75
2023/04/10 06:16:08;;;;;;;34.40;15.05;;;2.00;100.00;;;;;;5066357;28;20056;-75
2023/04/10 06:18:35;;;;;;;35.20;14.85;;;2.00;100.00;;;;;;5065520;28;20709;-75
2023/04/10 06:21:02;;;;;;;41.75;16.50;;;2.10;100.00;;;;;;5064041;28;20040;-74
2023/04/10 06:23:29;;;;;;;35.28;15.82;;;2.20;100.00;;;;;;5042452;28;20787;-74
2023/04/10 06:25:56;;;;;;;38.58;15.30;;;2.30;100.00;;;;;;5044275;28;20047;-74
2023/04/10 06:28:23;;;;;;;37.22;13.93;;;2.50;100.00;;;;;;5045342;28;20048;-74
2023/04/10 06:30:50;;;;;;;39.50;14.68;;;2.60;100.00;;;;;;5060769;28;20048;-74
2023/04/10 06:33:17;;;;;;;37.03;14.90;;;2.80;100.00;;;;;;5060800;28;20135;-74
2023/04/10 06:35:43;;;;;;;39.05;15.85;;;3.10;100.00;;;;;;5059667;28;20059;-74
2023/04/10 06:38:11;;;;;;;39.20;15.80;;;3.30;100.00;;;;;;5045269;28;20519;-74
2023/04/10 06:40:37;;;;;;;35.55;16.48;;;3.50;100.00;;;;;;5044485;28;20044;-75
2023/04/10 06:43:04;;;;;;;39.15;14.80;;;3.70;99.80;;;;;;5061723;28;20044;-75
2023/04/10 06:45:31;;;;;;;36.83;15.15;;;4.00;99.90;;;;;;5044343;28;20375;-76
2023/04/10 06:47:58;;;;;;;35.92;16.02;;;4.40;99.40;;;;;;5062979;28;20044;-76
2023/04/10 06:50:25;;;;;;;31.67;15.77;;;5.00;97.80;;;;;;5063932;28;20167;-75
2023/04/10 06:52:58;;;;;;;33.28;15.35;;;5.70;95.80;;;;;;5065049;28;20513;-75
2023/04/10 06:55:28;;;;;;;30.30;14.73;;;6.50;92.50;;;;;;5064884;28;20131;-76
2023/04/10 06:57:55;;;;;;;30.98;13.93;;;7.20;89.40;;;;;;5061646;28;20638;-76
2023/04/10 07:00:23;;;;;;;30.58;13.23;;;7.80;86.00;;;;;;5041705;28;20055;-76
2023/04/10 07:02:49;;;;;;;28.20;12.38;;;8.40;83.70;;;;;;5060094;28;20147;-76
2023/04/10 07:05:16;;;;;;;27.90;11.70;;;9.00;80.20;;;;;;5062864;28;20127;-76
2023/04/10 07:07:43;;;;;;;23.67;10.32;;;9.60;78.40;;;;;;5056903;28;20053;-76
2023/04/10 07:10:10;;;;;;;25.02;10.63;;;10.30;75.10;;;;;;5045731;28;20051;-76
2023/04/10 07:12:37;;;;;;;23.25;10.50;;;10.70;74.00;;;;;;5051016;28;20520;-76
2023/04/10 07:15:04;;;;;;;16.65;8.77;;;10.90;72.40;;;;;;5069495;28;20053;-76
2023/04/10 07:17:31;;;;;;;22.27;9.95;;;11.40;72.70;;;;;;5057449;28;20861;-76
2023/04/10 07:19:58;;;;;;;18.55;8.10;;;12.00;69.90;;;;;;5062090;28;20055;-76
2023/04/10 07:22:26;;;;;;;16.50;7.53;;;12.40;69.10;;;;;;5062963;28;20135;-76
2023/04/10 07:24:52;;;;;;;20.25;8.02;;;12.60;68.60;;;;;;5049302;28;20044;-76
2023/04/10 07:27:19;;;;;;;14.43;7.10;;;12.90;67.90;;;;;;5063007;28;20045;-76
2023/04/10 07:29:46;;;;;;;19.63;8.70;;;13.30;68.20;;;;;;5044138;28;20048;-77
2023/04/10 07:32:13;;;;;;;16.52;8.10;;;13.20;67.40;;;;;;5062967;28;20044;-76
2023/04/10 07:34:41;;;;;;;21.30;8.88;;;13.60;66.60;;;;;;5056469;28;20048;-76
2023/04/10 07:37:08;;;;;;;17.38;8.15;;;14.20;66.60;;;;;;5046716;28;20102;-76
2023/04/10 07:39:35;;;;;;;18.17;8.93;;;14.50;63.60;;;;;;5059337;28;20051;-78
2023/04/10 07:42:02;;;;;;;16.98;8.77;;;14.40;66.80;;;;;;5044542;28;20040;-77
2023/04/10 07:44:29;;;;;;;14.80;8.15;;;14.90;64.60;;;;;;5059388;28;20044;-77
2023/04/10 07:46:56;;;;;;;19.60;9.45;;;14.90;61.60;;;;;;5038322;28;20049;-77
2023/04/10 07:49:22;;;;;;;19.77;9.45;;;14.40;64.60;;;;;;5041271;28;20053;-80
2023/04/10 07:51:49;;;;;;;17.70;8.85;;;14.70;63.70;;;;;;5062502;28;20049;-77
2023/04/10 07:54:16;;;;;;;23.10;9.30;;;14.50;65.20;;;;;;5064034;28;20060;-74
2023/04/10 07:56:43;;;;;;;21.10;9.40;;;14.80;65.00;;;;;;5062494;28;20052;-78
2023/04/10 07:59:11;;;;;;;19.08;10.18;;;15.40;63.60;;;;;;5058904;28;20063;-82
2023/04/10 08:01:38;;;;;;;19.55;9.35;;;15.70;63.30;;;;;;5061442;28;20052;-77
2023/04/10 08:04:05;;;;;;;16.75;9.57;;;15.40;61.70;;;;;;5044395;28;20048;-84
2023/04/10 08:06:32;;;;;;;16.27;8.82;;;15.50;63.40;;;;;;5046072;28;20052;-77
2023/04/10 08:09:00;;;;;;;23.83;9.07;;;15.80;62.10;;;;;;5045892;28;20064;-78
2023/04/10 08:11:32;;;;;;;28.02;9.57;;;15.60;61.10;;;;;;5062868;28;20741;-79
2023/04/10 08:14:04;;;;;;;24.73;9.55;;;15.50;61.90;;;;;;5062081;28;20984;-79
2023/04/10 08:16:34;;;;;;;24.45;9.98;;;16.00;64.30;;;;;;5060091;28;20068;-86
2023/04/10 08:19:01;;;;;;;17.00;8.90;;;17.20;60.40;;;;;;5062417;28;20048;-76
2023/04/10 08:21:30;;;;;;;19.48;10.18;;;17.90;60.10;;;;;;5062797;28;20510;-75
2023/04/10 08:23:59;;;;;;;18.95;9.23;;;18.00;59.50;;;;;;5065561;28;20047;-75
2023/04/10 08:26:27;;;;;;;20.23;9.68;;;18.50;57.20;;;;;;5066282;28;20078;-76
2023/04/10 08:28:56;;;;;;;20.90;10.15;;;19.00;58.30;;;;;;5065007;28;20048;-75
2023/04/10 08:31:25;;;;;;;16.75;9.85;;;19.30;55.40;;;;;;5062581;28;20167;-75
2023/04/10 08:33:52;;;;;;;15.13;8.48;;;19.50;56.50;;;;;;5060749;28;20056;-73
2023/04/10 08:36:19;;;;;;;20.00;9.65;;;20.10;56.50;;;;;;5066269;28;20045;-79
2023/04/10 08:38:47;;;;;;;17.98;10.10;;;20.70;54.60;;;;;;5067828;28;20067;-73
2023/04/10 08:41:16;;;;;;;20.13;10.80;;;20.60;52.90;;;;;;5066303;28;20041;-80
2023/04/10 08:43:44;;;;;;;18.10;9.70;;;20.10;53.70;;;;;;5056990;28;20044;-74
2023/04/10 08:46:13;;;;;;;16.73;9.75;;;19.90;54.10;;;;;;5064085;28;20044;-75
2023/04/10 08:48:51;;;;;;;16.20;10.05;;;19.90;53.30;;;;;;5059404;28;20106;-75
2023/04/10 08:51:20;;;;;;;18.08;10.40;;;19.80;52.00;;;;;;5058024;28;20045;-79
2023/04/10 08:53:57;;;;;;;19.45;10.75;;;19.90;54.70;;;;;;5066579;28;20033;-79
2023/04/10 08:56:24;;;;;;;20.75;10.80;;;20.40;52.60;;;;;;5063381;28;20048;-75
2023/04/10 08:58:52;;;;;;;20.70;11.02;;;20.50;53.80;;;;;;5063540;28;20055;-75
2023/04/10 09:01:20;;;;;;;21.20;11.27;;;20.40;52.90;;;;;;5061227;28;20133;-75
2023/04/10 09:03:47;;;;;;;17.65;10.40;;;20.80;51.70;;;;;;5062431;28;20488;-75
2023/04/10 09:06:14;;;;;;;21.67;10.82;;;20.80;51.70;;;;;;5063898;28;20054;-78
2023/04/10 09:08:41;;;;;;;17.38;10.68;;;20.70;52.00;;;;;;5067554;28;20050;-75
2023/04/10 09:11:09;;;;;;;18.38;10.63;;;21.00;50.50;;;;;;5065157;28;20052;-73
2023/04/10 09:13:45;;;;;;;20.50;10.57;;;21.20;51.50;;;;;;5062747;28;20044;-75
2023/04/10 09:16:13;;;;;;;20.63;11.13;;;21.80;50.60;;;;;;5061809;28;20433;-74
2023/04/10 09:18:49;;;;;;;19.15;11.05;;;22.00;50.10;;;;;;5064468;28;20056;-74
2023/04/10 09:21:20;;;;;;;20.08;10.45;;;21.80;48.80;;;;;;5062200;28;20113;-78
2023/04/10 09:23:48;;;;;;;15.25;9.23;;;22.20;47.50;;;;;;5064842;28;20088;-76
2023/04/10 09:26:29;;;;;;;21.02;10.60;;;22.70;49.40;;;;;;5067964;28;20049;-74
2023/04/10 09:29:05;;;;;;;16.20;9.55;;;22.70;48.00;;;;;;5066173;28;20047;-83
2023/04/10 09:31:34;;;;;;;17.42;10.38;;;23.30;46.20;;;;;;5060774;28;20054;-76
2023/04/10 09:34:17;;;;;;;15.77;9.10;;;23.30;46.30;;;;;;5064612;28;20080;-77
2023/04/10 09:36:55;;;;;;;16.67;9.63;;;23.10;44.10;;;;;;5044193;28;20041;-78
2023/04/10 09:39:34;;;;;;;16.27;9.38;;;23.30;45.90;;;;;;5045496;28;20041;-76
2023/04/10 09:42:01;;;;;;;17.33;10.30;;;23.40;44.40;;;;;;5063786;28;20055;-74
2023/04/10 09:44:36;;;;;;;13.25;9.02;;;23.70;44.80;;;;;;5063186;28;20741;-75
2023/04/10 09:47:18;;;;;;;17.98;8.75;;;23.80;43.10;;;;;;5061797;28;20044;-75
2023/04/10 09:49:53;;;;;;;17.77;9.73;;;23.90;42.20;;;;;;5060003;28;20123;-75
2023/04/10 09:52:25;;;;;;;14.60;8.82;;;24.40;44.30;;;;;;5062952;28;20059;-77
2023/04/10 09:54:54;;;;;;;13.27;7.95;;;24.70;41.90;;;;;;5047590;28;20060;-77
2023/04/10 09:57:22;;;;;;;17.52;9.07;;;24.50;41.60;;;;;;5046531;28;20048;-79
2023/04/10 09:59:51;;;;;;;13.30;9.25;;;25.10;42.20;;;;;;5066874;28;20036;-78
2023/04/10 10:02:20;;;;;;;13.73;8.52;;;25.30;39.90;;;;;;5061887;28;20045;-84
2023/04/10 10:04:48;;;;;;;12.05;7.60;;;24.50;41.30;;;;;;5062099;28;20051;-77
2023/04/10 10:07:17;;;;;;;11.85;8.13;;;23.90;41.80;;;;;;5061987;28;20623;-77
2023/04/10 10:09:45;;;;;;;12.73;8.45;;;24.10;42.60;;;;;;5038773;28;20745;-78
2023/04/10 10:12:16;;;;;;;16.40;8.02;;;24.50;42.60;;;;;;5042260;28;20049;-76
2023/04/10 10:15:14;;;;;;;14.20;8.57;;;25.30;41.90;;;;;;5053394;28;20059;-76
2023/04/10 10:18:02;;;;;;;14.15;8.23;;;25.20;40.50;;;;;;5062967;28;20547;-76
2023/04/10 10:20:31;;;;;;;13.02;8.10;;;25.40;38.70;;;;;;5062918;28;20783;-76
2023/04/10 10:23:02;;;;;;;9.30;6.55;;;25.60;39.30;;;;;;5062242;28;20437;-75
2023/04/10 10:25:30;;;;;;;11.05;7.60;;;25.40;40.50;;;;;;5063402;28;20714;-77
2023/04/10 10:28:02;;;;;;;9.73;7.63;;;25.40;39.50;;;;;;5063083;28;20052;-75
2023/04/10 10:30:32;;;;;;;11.43;7.53;;;25.30;39.50;;;;;;5043296;28;20049;-74
2023/04/10 10:33:04;;;;;;;11.45;7.13;;;25.60;39.00;;;;;;5062609;28;20146;-74
2023/04/10 10:35:33;;;;;;;8.82;7.22;;;25.50;38.90;;;;;;5060364;28;20052;-74
2023/04/10 10:38:02;;;;;;;9.43;6.32;;;25.40;40.10;;;;;;5063081;28;20496;-74
2023/04/10 10:40:34;;;;;;;10.18;6.60;;;25.70;38.10;;;;;;5060133;28;20056;-73
2023/04/10 10:43:13;;;;;;;10.48;6.72;;;26.40;38.10;;;;;;5041620;28;20516;-75
2023/04/10 10:45:53;;;;;;;10.85;7.22;;;26.90;38.30;;;;;;5045770;28;20040;-75
2023/04/10 10:48:20;;;;;;;9.27;6.38;;;27.10;35.40;;;;;;5061174;28;20056;-74
2023/04/10 10:50:57;;;;;;;791.55;162.55;;;27.00;37.30;;;;;;5064008;28;20620;-74
2023/04/10 10:53:36;;;;;;;27.42;8.57;;;27.20;36.10;;;;;;5060913;28;20044;-75
2023/04/10 10:56:18;;;;;;;26.60;7.90;;;26.80;34.10;;;;;;5064537;28;20044;-75
2023/04/10 10:58:53;;;;;;;21.60;7.82;;;26.90;34.80;;;;;;5044025;28;20075;-77
2023/04/10 11:01:21;;;;;;;82.78;16.60;;;25.90;35.10;;;;;;5038431;28;20113;-76
2023/04/10 11:03:48;;;;;;;111.63;20.75;;;25.90;37.60;;;;;;5043465;28;20063;-77
2023/04/10 11:06:20;;;;;;;6.53;5.38;;;26.80;36.00;;;;;;5042917;28;20052;-77
2023/04/10 11:08:51;;;;;;;7.47;5.45;;;27.40;35.50;;;;;;5063667;28;20044;-78
2023/04/10 11:11:23;;;;;;;6.97;5.65;;;27.60;35.20;;;;;;5048809;28;20040;-78
2023/04/10 11:13:55;;;;;;;7.35;5.97;;;27.70;34.50;;;;;;5063085;28;20130;-77
2023/04/10 11:16:40;;;;;;;7.88;6.05;;;27.70;34.60;;;;;;5045282;28;20047;-79
2023/04/10 11:19:11;;;;;;;8.73;5.90;;;27.30;34.40;;;;;;5061470;28;20045;-78
2023/04/10 11:22:07;;;;;;;8.90;6.57;;;27.30;36.10;;;;;;5066365;28;20047;-73
2023/04/10 11:24:58;;;;;;;8.82;5.80;;;27.40;34.80;;;;;;5042733;28;20151;-74
2023/04/10 11:27:38;;;;;;;8.85;6.10;;;26.50;37.00;;;;;;5061283;28;20049;-73
2023/04/10 11:30:30;;;;;;;10.70;6.85;;;27.00;35.60;;;;;;5039425;28;20123;-74
2023/04/10 11:32:59;;;;;;;8.10;6.18;;;26.90;35.50;;;;;;5064037;28;20040;-73
2023/04/10 11:35:27;;;;;;;12.25;6.90;;;27.10;37.00;;;;;;5062224;28;20135;-75
2023/04/10 11:38:15;;;;;;;9.55;6.28;;;27.40;35.50;;;;;;5061638;28;20087;-79
2023/04/10 11:41:14;;;;;;;9.77;6.40;;;27.50;35.00;;;;;;5059099;28;20069;-76
2023/04/10 11:43:41;;;;;;;10.20;6.65;;;27.50;35.60;;;;;;5012067;28;20167;-76
2023/04/10 11:46:08;;;;;;;8.43;5.93;;;27.70;36.80;;;;;;5063515;28;20052;-77
2023/04/10 11:48:36;;;;;;;15.30;6.03;;;28.40;35.40;;;;;;5070868;28;20056;-80
2023/04/10 11:51:07;;;;;;;9.82;6.22;;;28.70;34.50;;;;;;5064377;28;20044;-81
2023/04/10 11:53:34;;;;;;;10.00;6.45;;;28.70;33.70;;;;;;5044047;28;20609;-77
2023/04/10 11:56:01;;;;;;;8.40;5.63;;;28.50;35.10;;;;;;5066928;28;20044;-76
2023/04/10 11:58:31;;;;;;;8.57;5.45;;;28.70;33.70;;;;;;5069181;28;20718;-78
2023/04/10 12:01:03;;;;;;;8.65;5.70;;;27.90;34.20;;;;;;5046357;28;20048;-77
2023/04/10 12:03:35;;;;;;;7.07;5.65;;;27.30;34.40;;;;;;5070643;28;20056;-78
2023/04/10 12:06:05;;;;;;;9.13;6.88;;;27.50;35.20;;;;;;5065804;28;20041;-77
2023/04/10 12:08:38;;;;;;;10.50;6.65;;;28.10;34.00;;;;;;5073599;28;20049;-76
2023/04/10 12:11:06;;;;;;;9.40;7.10;;;27.80;34.70;;;;;;5067857;28;20071;-77
2023/04/10 12:13:33;;;;;;;7.07;5.55;;;28.50;35.00;;;;;;5072536;28;20044;-78
2023/04/10 12:16:02;;;;;;;6.63;4.68;;;28.70;34.30;;;;;;5052384;28;20127;-75
2023/04/10 12:18:29;;;;;;;6.38;4.70;;;28.60;33.30;;;;;;5068008;28;20088;-76
2023/04/10 12:20:58;;;;;;;7.95;5.68;;;28.20;34.50;;;;;;5066172;28;20155;-81
2023/04/10 12:23:26;;;;;;;8.75;6.18;;;28.30;34.30;;;;;;5063698;28;20048;-81
2023/04/10 12:26:10;;;;;;;103.05;19.70;;;28.60;34.40;;;;;;5051731;28;20044;-80
2023/04/10 12:28:40;;;;;;;10.35;6.57;;;29.20;33.60;;;;;;5060937;28;20171;-80
2023/04/10 12:31:08;;;;;;;9.57;6.70;;;29.10;33.70;;;;;;5066393;28;20040;-77
2023/04/10 12:33:35;;;;;;;11.38;6.75;;;27.70;34.00;;;;;;5065738;28;20063;-74
2023/04/10 12:36:02;;;;;;;11.05;7.32;;;27.50;35.30;;;;;;5065848;28;20128;-80
2023/04/10 12:38:40;;;;;;;8.43;6.15;;;28.30;35.40;;;;;;5065424;28;20657;-73
2023/04/10 12:41:11;;;;;;;9.95;6.40;;;28.40;34.00;;;;;;5064548;28;20640;-77